Time;durP1;ratioP1;P1;durP2;ratioP2;P2;SDS_P1;SDS_P2;PMS_P1;PMS_P2;Temp;Humidity;BMP_temperature;BMP_pressure;BME280_temperature;BME280_humidity;BME280_pressure;Samples;Min_cycle;Max_cycle;Signal;HPM_P1;HPM_P2
2023/03/29 00:01:50;;;;;;;1.52;0.40;;;5.30;99.90;;;;;;4977356;28;20496;-88
2023/03/29 00:04:20;;;;;;;1.77;0.50;;;5.30;99.90;;;;;;4995629;28;20084;-88
2023/03/29 00:06:49;;;;;;;1.55;0.40;;;5.30;99.90;;;;;;4997275;28;20108;-87
2023/03/29 00:09:17;;;;;;;1.65;0.43;;;5.30;99.90;;;;;;4998439;28;20043;-88
2023/03/29 00:11:43;;;;;;;2.60;0.50;;;5.30;99.90;;;;;;4984978;28;20041;-88
2023/03/29 00:14:10;;;;;;;1.90;0.40;;;5.30;99.90;;;;;;4974752;28;20382;-87
2023/03/29 00:16:35;;;;;;;1.25;0.40;;;5.30;99.90;;;;;;4992283;28;20042;-88
2023/03/29 00:19:01;;;;;;;1.30;0.50;;;5.20;99.90;;;;;;4982172;28;20041;-88
2023/03/29 00:21:27;;;;;;;1.38;0.40;;;5.20;99.90;;;;;;4981068;28;20038;-88
2023/03/29 00:23:52;;;;;;;3.10;0.45;;;5.20;99.90;;;;;;4983432;28;20033;-89
2023/03/29 00:26:19;;;;;;;2.95;0.40;;;5.20;99.90;;;;;;5001782;28;20038;-88
2023/03/29 00:28:44;;;;;;;1.13;0.35;;;5.20;99.90;;;;;;5000485;28;20041;-90
2023/03/29 00:31:12;;;;;;;1.45;0.40;;;5.30;99.90;;;;;;4981681;28;20553;-89
2023/03/29 00:33:40;;;;;;;1.30;0.50;;;5.30;99.90;;;;;;4974435;28;20099;-88
2023/03/29 00:36:07;;;;;;;1.80;0.40;;;5.30;99.90;;;;;;4983211;28;20033;-88
2023/03/29 00:38:33;;;;;;;1.73;0.43;;;5.40;99.90;;;;;;4974725;28;20382;-89
2023/03/29 00:40:59;;;;;;;2.95;0.43;;;5.40;99.90;;;;;;5001255;28;20069;-88
2023/03/29 00:43:25;;;;;;;1.23;0.40;;;5.40;99.90;;;;;;4980163;28;20058;-88
2023/03/29 00:45:52;;;;;;;2.70;0.52;;;5.30;99.90;;;;;;4980184;28;20486;-89
2023/03/29 00:48:24;;;;;;;1.63;0.40;;;5.40;99.90;;;;;;4982253;28;20022;-87
2023/03/29 00:51:00;;;;;;;2.05;0.50;;;5.40;99.90;;;;;;4974358;28;20030;-88
2023/03/29 00:53:35;;;;;;;2.40;0.50;;;5.40;99.90;;;;;;5000481;28;20034;-89
2023/03/29 00:56:17;;;;;;;1.38;0.60;;;5.40;99.90;;;;;;5001768;28;20458;-87
2023/03/29 00:59:09;;;;;;;1.38;0.40;;;5.40;99.90;;;;;;5000318;28;20034;-92
2023/03/29 01:01:41;;;;;;;2.10;0.43;;;5.40;99.90;;;;;;4990490;28;20125;-90
2023/03/29 01:04:31;;;;;;;1.77;0.50;;;5.40;99.90;;;;;;4973509;28;20089;-90
2023/03/29 01:07:12;;;;;;;2.40;0.50;;;5.40;99.90;;;;;;4995262;28;20381;-88
2023/03/29 01:09:41;;;;;;;2.13;0.68;;;5.40;99.90;;;;;;4985258;28;20537;-88
2023/03/29 01:12:17;;;;;;;1.65;0.60;;;5.40;99.90;;;;;;4981543;28;20039;-88
2023/03/29 01:14:51;;;;;;;1.38;0.50;;;5.40;99.90;;;;;;5005301;28;20026;-88
2023/03/29 01:17:20;;;;;;;1.83;0.60;;;5.50;99.90;;;;;;4991862;28;20030;-89
2023/03/29 01:19:56;;;;;;;3.73;0.70;;;5.50;99.90;;;;;;5005223;28;20022;-87
2023/03/29 01:22:40;;;;;;;1.48;0.50;;;5.50;99.90;;;;;;5019975;28;20288;-88
2023/03/29 01:25:25;;;;;;;2.13;0.40;;;5.50;99.90;;;;;;4983066;28;20022;-89
2023/03/29 01:27:55;;;;;;;2.45;0.70;;;5.50;99.90;;;;;;4974916;28;20034;-89
2023/03/29 01:30:35;;;;;;;1.65;0.50;;;5.60;99.90;;;;;;4972770;28;20042;-88
2023/03/29 01:33:24;;;;;;;2.75;0.50;;;5.60;99.90;;;;;;5000343;28;20042;-88
2023/03/29 01:36:02;;;;;;;1.70;0.57;;;5.60;99.90;;;;;;4981664;28;20034;-88
2023/03/29 01:38:47;;;;;;;1.30;0.40;;;5.50;99.90;;;;;;4995386;28;20081;-88
2023/03/29 01:41:13;;;;;;;2.70;0.55;;;5.60;99.90;;;;;;4973830;28;20029;-89
2023/03/29 01:44:01;;;;;;;1.42;0.40;;;5.60;99.90;;;;;;5012298;28;20391;-89
2023/03/29 01:46:31;;;;;;;2.20;0.50;;;5.60;99.90;;;;;;4996577;28;20510;-88
2023/03/29 01:49:10;;;;;;;1.80;0.40;;;5.60;99.90;;;;;;4979223;28;20026;-88
2023/03/29 01:51:56;;;;;;;2.10;0.60;;;5.60;99.90;;;;;;4990968;28;20491;-88
2023/03/29 01:54:32;;;;;;;2.53;0.50;;;5.60;99.90;;;;;;4979702;28;20045;-89
2023/03/29 01:56:58;;;;;;;1.02;0.30;;;5.70;99.90;;;;;;4990021;28;20095;-88
2023/03/29 01:59:27;;;;;;;1.95;0.40;;;5.60;99.90;;;;;;4981572;28;20029;-89
2023/03/29 02:02:02;;;;;;;1.30;0.40;;;5.60;99.90;;;;;;4996748;28;20091;-89
2023/03/29 02:04:43;;;;;;;2.30;0.50;;;5.70;99.90;;;;;;4992076;28;20113;-87
2023/03/29 02:07:09;;;;;;;1.33;0.50;;;5.60;99.90;;;;;;4986871;28;20038;-89
2023/03/29 02:09:37;;;;;;;2.13;0.40;;;5.70;99.90;;;;;;4978911;28;20108;-90
2023/03/29 02:12:05;;;;;;;1.20;0.30;;;5.70;99.90;;;;;;4983172;28;20026;-89
2023/03/29 02:14:32;;;;;;;1.90;0.50;;;5.70;99.90;;;;;;4973133;28;20034;-89
2023/03/29 02:17:22;;;;;;;1.10;0.30;;;5.70;99.90;;;;;;4999024;28;20037;-88
2023/03/29 02:19:53;;;;;;;1.48;0.40;;;5.70;99.90;;;;;;4997680;28;20529;-86
2023/03/29 02:22:29;;;;;;;1.30;0.30;;;5.80;99.90;;;;;;4999182;28;20368;-88
2023/03/29 02:24:57;;;;;;;2.67;0.50;;;5.80;99.90;;;;;;5012820;28;20038;-89
2023/03/29 02:27:28;;;;;;;1.58;0.40;;;5.80;99.90;;;;;;4975522;28;20026;-89
2023/03/29 02:29:54;;;;;;;2.13;0.40;;;5.80;99.90;;;;;;4992591;28;20038;-92
2023/03/29 02:32:34;;;;;;;1.73;0.40;;;5.80;99.90;;;;;;5014529;28;20391;-89
2023/03/29 02:35:06;;;;;;;1.23;0.40;;;5.80;99.90;;;;;;5029396;28;20042;-89
2023/03/29 02:37:33;;;;;;;1.77;0.40;;;5.80;99.90;;;;;;4978027;28;20045;-88
2023/03/29 02:40:00;;;;;;;1.13;0.30;;;5.80;99.90;;;;;;4981382;28;20272;-88
2023/03/29 02:42:27;;;;;;;1.15;0.55;;;5.80;99.90;;;;;;4979958;28;20037;-89
2023/03/29 02:44:57;;;;;;;1.65;0.40;;;5.90;99.90;;;;;;4976491;28;20117;-89
2023/03/29 02:47:37;;;;;;;1.48;0.40;;;5.90;99.90;;;;;;5012121;28;20031;-88
2023/03/29 02:50:03;;;;;;;1.33;0.50;;;5.90;99.90;;;;;;4969774;28;20026;-88
2023/03/29 02:52:41;;;;;;;1.55;0.40;;;5.90;99.90;;;;;;5012070;28;20502;-89
2023/03/29 02:55:15;;;;;;;1.08;0.30;;;5.90;99.90;;;;;;4988663;28;20061;-88
2023/03/29 02:57:42;;;;;;;0.95;0.38;;;5.90;99.90;;;;;;4976717;28;20038;-89
2023/03/29 03:00:09;;;;;;;1.45;0.40;;;5.90;99.90;;;;;;4988846;28;20026;-87
2023/03/29 03:02:36;;;;;;;1.48;0.40;;;5.90;99.90;;;;;;4993826;28;20053;-88
2023/03/29 03:05:04;;;;;;;2.20;0.50;;;5.90;99.90;;;;;;4980681;28;20018;-88
2023/03/29 03:07:30;;;;;;;2.38;0.50;;;5.90;99.90;;;;;;4983982;28;20022;-88
2023/03/29 03:09:56;;;;;;;2.15;0.50;;;5.80;99.90;;;;;;4995693;28;20038;-89
2023/03/29 03:12:22;;;;;;;1.75;0.52;;;5.90;99.90;;;;;;4978302;28;20027;-89
2023/03/29 03:14:48;;;;;;;1.92;0.60;;;5.90;99.90;;;;;;4985894;28;20549;-89
2023/03/29 03:17:14;;;;;;;1.60;0.45;;;5.90;99.90;;;;;;4996253;28;20112;-88
2023/03/29 03:19:40;;;;;;;1.70;0.68;;;5.80;99.90;;;;;;4989620;28;20037;-89
2023/03/29 03:22:06;;;;;;;1.30;0.50;;;5.90;99.90;;;;;;4996083;28;20026;-90
2023/03/29 03:24:33;;;;;;;1.42;0.40;;;5.80;99.90;;;;;;4990700;28;20462;-90
2023/03/29 03:26:59;;;;;;;1.65;0.50;;;5.90;99.90;;;;;;4971922;28;20023;-90
2023/03/29 03:29:25;;;;;;;2.88;0.60;;;5.80;99.90;;;;;;4996987;28;20034;-90
2023/03/29 03:32:11;;;;;;;1.35;0.60;;;5.80;99.90;;;;;;4993205;28;20037;-89
2023/03/29 03:35:07;;;;;;;2.83;0.50;;;5.70;99.90;;;;;;4976658;28;20038;-91
2023/03/29 03:37:33;;;;;;;2.30;0.68;;;5.70;99.90;;;;;;4950115;28;20479;-90
2023/03/29 03:39:58;;;;;;;3.42;0.60;;;5.80;99.90;;;;;;4949900;28;20260;-90
2023/03/29 03:42:28;;;;;;;1.98;0.60;;;5.80;99.90;;;;;;4976187;28;20117;-91
2023/03/29 03:44:54;;;;;;;2.35;0.43;;;5.70;99.90;;;;;;4952907;28;20137;-90
2023/03/29 03:47:43;;;;;;;1.38;0.40;;;5.70;99.90;;;;;;4973251;28;20083;-90
2023/03/29 03:50:32;;;;;;;1.95;0.40;;;5.80;99.90;;;;;;4971482;28;20038;-90
2023/03/29 03:52:58;;;;;;;1.20;0.40;;;5.80;99.90;;;;;;4963407;28;20034;-91
2023/03/29 03:55:24;;;;;;;1.73;0.40;;;5.70;99.90;;;;;;4964461;28;20181;-91
2023/03/29 03:57:58;;;;;;;1.33;0.40;;;5.80;99.90;;;;;;4970960;28;20061;-90
2023/03/29 04:00:25;;;;;;;1.77;0.52;;;5.80;99.90;;;;;;4961485;28;20510;-90
2023/03/29 04:03:06;;;;;;;3.00;0.50;;;5.80;99.90;;;;;;4977990;28;20027;-90
2023/03/29 04:05:37;;;;;;;2.90;0.55;;;5.80;99.90;;;;;;4966500;28;20574;-90
2023/03/29 04:08:05;;;;;;;1.63;0.45;;;5.80;99.90;;;;;;4969183;28;20050;-92
2023/03/29 04:10:52;;;;;;;2.92;0.52;;;5.80;99.90;;;;;;4973845;28;20041;-90
2023/03/29 04:13:23;;;;;;;2.35;0.40;;;5.80;99.90;;;;;;4976757;28;20065;-91
2023/03/29 04:16:08;;;;;;;1.20;0.40;;;5.80;99.90;;;;;;4997689;28;20143;-91
2023/03/29 04:18:34;;;;;;;0.95;0.40;;;5.80;99.90;;;;;;4983535;28;20061;-91
2023/03/29 04:21:00;;;;;;;1.45;0.30;;;5.90;99.90;;;;;;4981550;28;20077;-90
2023/03/29 04:23:27;;;;;;;2.65;0.50;;;5.90;99.90;;;;;;5007557;28;20068;-91
2023/03/29 04:25:55;;;;;;;1.63;0.40;;;5.90;99.90;;;;;;5011289;28;20486;-90
2023/03/29 04:28:40;;;;;;;1.52;0.50;;;5.90;99.90;;;;;;4989579;28;20033;-91
2023/03/29 04:31:23;;;;;;;1.95;0.60;;;5.90;99.90;;;;;;4976651;28;20103;-91
2023/03/29 04:34:09;;;;;;;2.08;0.47;;;5.90;99.90;;;;;;4987781;28;20030;-91
2023/03/29 04:36:34;;;;;;;1.65;0.40;;;5.90;99.90;;;;;;4979580;28;20030;-91
2023/03/29 04:39:03;;;;;;;1.95;0.40;;;6.00;99.90;;;;;;4981549;28;20030;-90
2023/03/29 04:41:29;;;;;;;2.15;0.45;;;5.90;99.90;;;;;;4982311;28;20032;-90
2023/03/29 04:44:02;;;;;;;1.70;0.50;;;6.00;99.90;;;;;;5014312;28;20471;-91
2023/03/29 04:46:31;;;;;;;1.40;0.50;;;6.00;99.90;;;;;;5003611;28;20026;-90
2023/03/29 04:49:08;;;;;;;2.83;0.57;;;6.00;99.90;;;;;;4996535;28;20038;-91
2023/03/29 04:51:38;;;;;;;1.33;0.40;;;6.00;99.90;;;;;;4985169;28;20033;-91
2023/03/29 04:54:05;;;;;;;2.13;0.60;;;6.00;99.90;;;;;;4980395;28;20034;-91
2023/03/29 04:56:42;;;;;;;1.98;0.40;;;6.00;99.90;;;;;;4977368;28;20051;-91
2023/03/29 04:59:27;;;;;;;2.22;0.50;;;6.00;99.90;;;;;;4996609;28;20041;-91
2023/03/29 05:01:53;;;;;;;2.53;0.40;;;6.10;99.90;;;;;;4992549;28;20026;-91
2023/03/29 05:04:19;;;;;;;1.85;0.47;;;6.00;99.90;;;;;;5006513;28;20110;-91
2023/03/29 05:07:01;;;;;;;2.47;0.68;;;6.10;99.90;;;;;;4975165;28;20113;-91
2023/03/29 05:09:27;;;;;;;1.33;0.45;;;6.10;99.90;;;;;;4993316;28;20069;-91
2023/03/29 05:11:52;;;;;;;1.30;0.50;;;6.10;99.90;;;;;;4982734;28;20050;-91
2023/03/29 05:14:20;;;;;;;1.55;0.40;;;6.10;99.90;;;;;;4980320;28;20034;-91
2023/03/29 05:16:46;;;;;;;1.25;0.40;;;6.10;99.90;;;;;;4981794;28;20081;-90
2023/03/29 05:19:11;;;;;;;1.10;0.40;;;6.10;99.90;;;;;;4981188;28;20057;-90
2023/03/29 05:21:41;;;;;;;1.10;0.35;;;6.10;99.90;;;;;;4981798;28;20228;-90
2023/03/29 05:24:11;;;;;;;1.00;0.30;;;6.10;99.90;;;;;;4991043;28;20030;-90
2023/03/29 05:26:55;;;;;;;1.30;0.47;;;6.10;99.90;;;;;;4997138;28;20039;-89
2023/03/29 05:29:22;;;;;;;2.42;0.50;;;6.10;99.90;;;;;;4979783;28;20034;-92
2023/03/29 05:31:54;;;;;;;1.48;0.43;;;6.20;99.90;;;;;;4999548;28;20064;-90
2023/03/29 05:34:20;;;;;;;1.25;0.50;;;6.10;99.90;;;;;;5002630;28;20026;-90
2023/03/29 05:36:50;;;;;;;1.25;0.40;;;6.10;99.90;;;;;;4973238;28;20443;-91
2023/03/29 05:39:16;;;;;;;1.33;0.40;;;6.10;99.90;;;;;;4995642;28;20113;-91
2023/03/29 05:41:43;;;;;;;2.28;0.40;;;6.20;99.90;;;;;;4988769;28;20699;-90
2023/03/29 05:44:30;;;;;;;2.42;0.40;;;6.20;99.90;;;;;;4981762;28;20033;-90
2023/03/29 05:47:06;;;;;;;2.17;0.40;;;6.20;99.90;;;;;;4981069;28;20025;-91
2023/03/29 05:49:32;;;;;;;1.10;0.40;;;6.20;99.90;;;;;;4973713;28;20149;-91
2023/03/29 05:52:07;;;;;;;1.58;0.50;;;6.30;99.90;;;;;;4981111;28;20049;-90
2023/03/29 05:54:34;;;;;;;2.03;0.50;;;6.30;99.90;;;;;;4980263;28;20116;-92
2023/03/29 05:57:00;;;;;;;1.70;0.32;;;6.30;99.90;;;;;;4967826;28;20051;-91
2023/03/29 05:59:28;;;;;;;1.52;0.50;;;6.30;99.90;;;;;;4992228;28;20031;-90
2023/03/29 06:01:55;;;;;;;1.25;0.40;;;6.30;99.90;;;;;;4982851;28;20057;-90
2023/03/29 06:04:21;;;;;;;2.55;0.50;;;6.40;99.90;;;;;;4980936;28;20081;-91
2023/03/29 06:07:04;;;;;;;1.10;0.40;;;6.40;99.90;;;;;;4980506;28;20054;-91
2023/03/29 06:09:30;;;;;;;1.23;0.40;;;6.40;99.90;;;;;;4984162;28;20033;-92
2023/03/29 06:12:02;;;;;;;3.15;0.50;;;6.40;99.90;;;;;;4971443;28;20451;-92
2023/03/29 06:14:28;;;;;;;1.67;0.60;;;6.50;99.90;;;;;;4995052;28;20030;-91
2023/03/29 06:17:05;;;;;;;1.80;0.50;;;6.50;99.90;;;;;;4980063;28;20038;-91
2023/03/29 06:19:30;;;;;;;1.83;0.50;;;6.50;99.90;;;;;;4971702;28;20025;-91
2023/03/29 06:21:56;;;;;;;2.25;0.50;;;6.50;99.90;;;;;;4978575;28;20574;-91
2023/03/29 06:24:25;;;;;;;1.67;0.60;;;6.60;99.90;;;;;;4979075;28;20406;-91
2023/03/29 06:26:58;;;;;;;1.00;0.40;;;6.60;99.90;;;;;;4976786;28;20144;-91
2023/03/29 06:29:24;;;;;;;2.22;0.60;;;6.60;99.90;;;;;;4986563;28;20112;-92
2023/03/29 06:31:50;;;;;;;1.42;0.47;;;6.70;99.90;;;;;;4994011;28;20234;-90
2023/03/29 06:34:36;;;;;;;2.92;0.40;;;6.80;99.90;;;;;;4990346;28;20026;-91
2023/03/29 06:37:20;;;;;;;1.33;0.40;;;6.80;99.90;;;;;;4975223;28;20046;-91
2023/03/29 06:39:52;;;;;;;1.70;0.50;;;6.90;99.90;;;;;;4986981;28;20023;-90
2023/03/29 06:42:23;;;;;;;1.58;0.40;;;6.90;99.90;;;;;;4985800;28;20212;-91
2023/03/29 06:45:14;;;;;;;2.13;0.40;;;7.00;99.90;;;;;;4990941;28;20029;-90
2023/03/29 06:47:45;;;;;;;1.33;0.50;;;7.00;99.90;;;;;;4992993;28;20025;-90
2023/03/29 06:50:13;;;;;;;2.40;0.50;;;7.10;99.90;;;;;;4982166;28;20041;-90
2023/03/29 06:52:48;;;;;;;2.00;0.57;;;7.20;99.90;;;;;;4991464;28;20403;-90
2023/03/29 06:55:14;;;;;;;3.17;0.50;;;7.30;99.90;;;;;;5002170;28;20054;-89
2023/03/29 06:57:41;;;;;;;1.52;0.60;;;7.40;99.90;;;;;;4977922;28;20042;-92
2023/03/29 07:00:18;;;;;;;1.58;0.40;;;7.40;99.90;;;;;;5006383;28;20497;-91
2023/03/29 07:03:05;;;;;;;1.98;0.70;;;7.40;99.90;;;;;;4989741;28;20487;-92
2023/03/29 07:05:32;;;;;;;3.97;1.13;;;7.40;99.90;;;;;;4981528;28;20173;-90
2023/03/29 07:08:01;;;;;;;2.63;0.75;;;7.30;99.90;;;;;;4968446;28;20030;-90
2023/03/29 07:10:47;;;;;;;3.28;0.90;;;7.30;99.90;;;;;;4992436;28;20125;-91
2023/03/29 07:13:19;;;;;;;2.78;0.60;;;7.30;99.90;;;;;;4993089;28;20022;-90
2023/03/29 07:15:48;;;;;;;2.33;0.88;;;7.40;99.90;;;;;;4977023;28;20041;-91
2023/03/29 07:18:25;;;;;;;3.15;1.13;;;7.50;99.90;;;;;;5005328;28;20034;-91
2023/03/29 07:20:51;;;;;;;2.35;0.70;;;7.50;99.90;;;;;;4996162;28;20080;-91
2023/03/29 07:23:17;;;;;;;3.40;1.00;;;7.50;99.90;;;;;;4972529;28;20395;-91
2023/03/29 07:25:45;;;;;;;2.55;0.70;;;7.50;99.90;;;;;;4967135;28;20037;-91
2023/03/29 07:28:10;;;;;;;1.42;0.60;;;7.50;99.90;;;;;;4970434;28;20108;-91
2023/03/29 07:30:36;;;;;;;1.75;0.60;;;7.60;99.90;;;;;;4979487;28;20124;-91
2023/03/29 07:33:14;;;;;;;3.15;0.70;;;7.60;99.90;;;;;;4971332;28;20030;-91
2023/03/29 07:35:56;;;;;;;2.38;0.73;;;7.70;99.90;;;;;;4973957;28;20384;-91
2023/03/29 07:38:22;;;;;;;3.00;0.80;;;7.70;99.90;;;;;;4984105;28;20037;-91
2023/03/29 07:40:55;;;;;;;1.65;0.50;;;7.70;99.90;;;;;;4970792;28;20038;-90
2023/03/29 07:43:43;;;;;;;2.55;0.50;;;7.90;99.90;;;;;;4996204;28;20467;-92
2023/03/29 07:46:10;;;;;;;1.73;0.45;;;8.00;99.90;;;;;;4997985;28;20026;-91
2023/03/29 07:48:37;;;;;;;1.02;0.40;;;8.10;99.90;;;;;;4975135;28;20545;-90
2023/03/29 07:51:08;;;;;;;1.67;0.40;;;8.10;99.90;;;;;;5001907;28;20125;-91
2023/03/29 07:53:48;;;;;;;2.13;0.50;;;8.20;99.90;;;;;;4984972;28;20113;-90
2023/03/29 07:56:32;;;;;;;1.33;0.40;;;8.30;99.90;;;;;;4992752;28;20112;-91
2023/03/29 07:59:21;;;;;;;1.77;0.52;;;8.40;99.90;;;;;;4972714;28;20034;-90
2023/03/29 08:01:55;;;;;;;1.65;0.40;;;8.40;99.90;;;;;;4980822;28;20025;-91
2023/03/29 08:04:31;;;;;;;2.70;0.50;;;8.60;99.90;;;;;;4998786;28;20033;-90
2023/03/29 08:07:13;;;;;;;2.53;0.80;;;8.60;99.90;;;;;;4996998;28;20042;-90
2023/03/29 08:09:59;;;;;;;1.95;0.60;;;8.60;99.90;;;;;;5007546;28;20029;-91
2023/03/29 08:12:52;;;;;;;4.78;0.70;;;8.80;99.90;;;;;;4998534;28;20029;-92
2023/03/29 08:15:20;;;;;;;2.40;0.70;;;8.80;99.90;;;;;;4984627;28;20542;-90
2023/03/29 08:17:46;;;;;;;2.50;0.82;;;8.90;99.90;;;;;;4970645;28;20045;-90
2023/03/29 08:20:15;;;;;;;1.65;0.60;;;9.00;99.90;;;;;;4972246;28;20048;-92
2023/03/29 08:22:42;;;;;;;2.20;0.65;;;9.00;99.90;;;;;;4985424;28;20485;-90
2023/03/29 08:25:26;;;;;;;3.08;0.63;;;9.10;99.90;;;;;;4996056;28;20038;-90
2023/03/29 08:27:53;;;;;;;3.05;0.68;;;9.20;99.90;;;;;;4972544;28;20390;-91
2023/03/29 08:30:36;;;;;;;2.55;0.82;;;9.30;99.90;;;;;;4971424;28;20070;-92
2023/03/29 08:33:03;;;;;;;2.05;1.00;;;9.40;99.90;;;;;;4972716;28;20072;-90
2023/03/29 08:35:28;;;;;;;2.90;1.20;;;9.50;99.90;;;;;;5001304;28;20509;-90
2023/03/29 08:38:18;;;;;;;3.25;0.70;;;9.60;99.90;;;;;;4987962;28;20117;-91
2023/03/29 08:40:47;;;;;;;3.47;0.80;;;9.60;99.90;;;;;;4989083;28;20030;-90
2023/03/29 08:43:53;;;;;;;2.28;0.70;;;9.60;99.90;;;;;;5014365;28;20029;-92
2023/03/29 08:46:50;;;;;;;2.60;0.98;;;9.60;99.90;;;;;;4985965;28;20491;-90
2023/03/29 08:49:25;;;;;;;3.50;1.05;;;9.60;99.90;;;;;;4999378;28;20180;-91
2023/03/29 08:51:56;;;;;;;3.13;1.00;;;9.70;99.90;;;;;;4974575;28;20092;-90
2023/03/29 08:54:26;;;;;;;2.95;0.65;;;9.90;99.90;;;;;;4981375;28;20026;-90
2023/03/29 08:57:27;;;;;;;1.92;0.90;;;10.00;99.90;;;;;;4990202;28;20042;-90
2023/03/29 09:00:04;;;;;;;2.58;0.90;;;10.10;99.90;;;;;;5010518;28;20104;-89
2023/03/29 09:02:34;;;;;;;4.43;1.15;;;10.20;99.90;;;;;;5015966;28;20077;-90
2023/03/29 09:05:27;;;;;;;3.40;1.45;;;10.20;99.90;;;;;;5003704;28;20057;-90
2023/03/29 09:08:16;;;;;;;3.05;1.20;;;10.20;99.90;;;;;;5010437;28;20033;-90
2023/03/29 09:10:51;;;;;;;3.33;1.67;;;10.60;99.90;;;;;;4976098;28;20489;-91
2023/03/29 09:13:29;;;;;;;4.00;1.15;;;10.70;99.90;;;;;;5001210;28;20120;-91
2023/03/29 09:16:21;;;;;;;3.13;0.95;;;10.90;99.90;;;;;;4989419;28;20047;-90
2023/03/29 09:19:15;;;;;;;4.78;1.58;;;10.90;99.90;;;;;;4991871;28;20038;-90
2023/03/29 09:21:48;;;;;;;2.65;1.48;;;10.70;99.90;;;;;;4984704;28;20053;-91
2023/03/29 09:24:26;;;;;;;4.03;1.30;;;10.70;99.90;;;;;;4978632;28;20033;-90
2023/03/29 09:27:19;;;;;;;4.28;1.73;;;10.70;99.90;;;;;;4987752;28;20049;-90
2023/03/29 09:30:01;;;;;;;3.40;1.48;;;10.80;99.90;;;;;;4999442;28;20479;-90
2023/03/29 09:33:08;;;;;;;3.42;1.08;;;11.10;99.90;;;;;;4979830;28;20031;-88
2023/03/29 09:35:59;;;;;;;3.95;1.85;;;11.00;99.90;;;;;;4977188;28;20060;-91
2023/03/29 09:38:28;;;;;;;6.57;2.67;;;10.80;99.90;;;;;;4975772;28;20030;-90
2023/03/29 09:41:01;;;;;;;6.15;3.33;;;10.70;99.90;;;;;;4973102;28;20109;-91
2023/03/29 09:43:36;;;;;;;5.07;1.90;;;10.60;99.90;;;;;;4989779;28;20645;-91
2023/03/29 09:46:21;;;;;;;5.97;2.72;;;10.80;99.90;;;;;;4981776;28;20418;-90
2023/03/29 09:48:49;;;;;;;7.00;3.10;;;10.80;99.90;;;;;;4982683;28;20026;-91
2023/03/29 09:51:18;;;;;;;5.22;2.53;;;10.90;99.90;;;;;;4976749;28;20029;-90
2023/03/29 09:53:45;;;;;;;4.47;2.33;;;11.00;99.90;;;;;;4983997;28;20026;-92
2023/03/29 09:56:23;;;;;;;6.77;2.93;;;11.30;99.90;;;;;;4978244;28;20046;-90
2023/03/29 09:59:00;;;;;;;5.43;3.15;;;11.70;99.90;;;;;;4975977;28;20120;-91
2023/03/29 10:01:35;;;;;;;6.22;3.20;;;11.90;99.90;;;;;;4994700;28;20120;-91
2023/03/29 10:04:05;;;;;;;5.03;2.60;;;12.00;99.90;;;;;;4997558;28;20025;-90
2023/03/29 10:06:33;;;;;;;5.50;2.75;;;12.10;99.90;;;;;;5002710;28;20562;-91
2023/03/29 10:09:01;;;;;;;4.00;2.40;;;12.00;99.90;;;;;;4982709;28;20022;-91
2023/03/29 10:11:46;;;;;;;4.63;2.50;;;11.90;99.90;;;;;;4975270;28;20082;-92
2023/03/29 10:14:28;;;;;;;4.90;2.97;;;11.60;99.90;;;;;;4990758;28;20316;-92
2023/03/29 10:16:56;;;;;;;5.18;2.20;;;11.50;99.90;;;;;;4979113;28;20034;-90
2023/03/29 10:19:33;;;;;;;3.70;2.00;;;11.60;99.90;;;;;;5001424;28;20033;-90
2023/03/29 10:22:06;;;;;;;3.75;1.77;;;11.60;99.90;;;;;;4995634;28;20341;-92
2023/03/29 10:24:32;;;;;;;5.22;2.38;;;11.70;99.90;;;;;;4997032;28;20030;-91
2023/03/29 10:27:05;;;;;;;3.08;1.77;;;11.80;99.90;;;;;;4975830;28;20446;-91
2023/03/29 10:29:41;;;;;;;4.13;1.67;;;11.70;99.90;;;;;;4973216;28;20072;-92
2023/03/29 10:32:27;;;;;;;4.60;2.10;;;11.80;99.90;;;;;;4982501;28;20120;-92
2023/03/29 10:34:54;;;;;;;4.10;1.35;;;11.90;99.90;;;;;;4976934;28;20113;-91
2023/03/29 10:37:21;;;;;;;3.45;1.98;;;12.00;99.90;;;;;;4989152;28;20061;-89
2023/03/29 10:39:48;;;;;;;6.55;2.92;;;12.00;99.90;;;;;;4976861;28;20021;-91
2023/03/29 10:42:16;;;;;;;4.65;2.15;;;12.00;99.90;;;;;;4990324;28;20524;-91
2023/03/29 10:44:55;;;;;;;2.58;1.42;;;12.10;99.90;;;;;;4984086;28;20029;-90
2023/03/29 10:47:21;;;;;;;5.82;1.77;;;12.10;99.90;;;;;;4985909;28;20552;-91
2023/03/29 10:49:57;;;;;;;3.95;2.40;;;12.00;99.90;;;;;;4979464;28;20364;-89
2023/03/29 10:52:24;;;;;;;5.18;2.72;;;11.90;99.90;;;;;;4999442;28;20037;-90
2023/03/29 10:54:58;;;;;;;6.57;3.28;;;11.80;99.90;;;;;;4984579;28;20038;-89
2023/03/29 10:57:40;;;;;;;6.28;4.22;;;11.80;99.90;;;;;;4991628;28;20046;-91
2023/03/29 11:00:20;;;;;;;4.55;3.00;;;11.70;99.90;;;;;;5004453;28;20110;-93
2023/03/29 11:02:52;;;;;;;5.55;3.60;;;11.90;99.90;;;;;;4995261;28;20073;-91
2023/03/29 11:05:37;;;;;;;4.60;2.92;;;11.70;99.90;;;;;;4997863;28;20456;-93
2023/03/29 11:08:25;;;;;;;4.57;2.00;;;11.80;99.90;;;;;;4997962;28;20033;-91
2023/03/29 11:10:54;;;;;;;4.70;2.53;;;11.90;99.90;;;;;;4969358;28;20037;-91
2023/03/29 11:13:41;;;;;;;3.47;1.85;;;11.80;99.90;;;;;;4971415;28;20426;-91
2023/03/29 11:16:20;;;;;;;4.07;2.10;;;11.60;99.90;;;;;;4993933;28;20045;-90
2023/03/29 11:18:55;;;;;;;6.60;2.10;;;11.40;99.90;;;;;;4980541;28;20038;-90
2023/03/29 11:21:38;;;;;;;4.55;2.08;;;11.60;99.90;;;;;;4969804;28;20484;-91
2023/03/29 11:24:16;;;;;;;4.85;2.28;;;11.80;99.90;;;;;;4981854;28;20048;-90
2023/03/29 11:27:09;;;;;;;3.15;1.60;;;12.00;99.90;;;;;;4970768;28;20033;-90
2023/03/29 11:29:38;;;;;;;4.07;1.80;;;12.10;99.90;;;;;;4985111;28;20457;-89
2023/03/29 11:32:24;;;;;;;4.72;1.73;;;12.10;99.90;;;;;;5003826;28;20435;-91
2023/03/29 11:35:28;;;;;;;4.97;1.90;;;12.10;99.90;;;;;;4970987;28;20030;-89
2023/03/29 11:38:04;;;;;;;5.05;1.40;;;11.90;99.90;;;;;;4979711;28;20093;-89
2023/03/29 11:41:03;;;;;;;6.07;2.05;;;12.30;99.90;;;;;;4980814;28;20530;-90
2023/03/29 11:43:47;;;;;;;3.10;1.08;;;12.20;99.90;;;;;;4982711;28;21928;-90
2023/03/29 11:46:25;;;;;;;4.45;1.60;;;12.30;99.90;;;;;;4996865;28;20035;-89
2023/03/29 11:48:57;;;;;;;2.85;1.50;;;12.10;99.90;;;;;;4973075;28;20053;-89
2023/03/29 11:51:47;;;;;;;2.80;1.33;;;12.10;99.90;;;;;;4970074;28;20041;-89
2023/03/29 11:54:21;;;;;;;2.70;1.33;;;12.10;99.90;;;;;;5014000;28;20026;-90
2023/03/29 11:57:19;;;;;;;2.60;1.15;;;12.20;99.90;;;;;;4971370;28;20057;-91
2023/03/29 12:00:04;;;;;;;2.05;1.10;;;12.40;99.90;;;;;;4978302;28;20044;-90
2023/03/29 12:03:15;;;;;;;2.47;1.15;;;12.20;99.90;;;;;;4988434;28;20123;-91
2023/03/29 12:05:56;;;;;;;1.48;0.60;;;12.20;99.90;;;;;;4982541;28;20034;-90
2023/03/29 12:08:30;;;;;;;1.88;0.95;;;12.50;99.90;;;;;;4986532;28;20033;-92
2023/03/29 12:11:06;;;;;;;3.03;1.02;;;12.30;99.90;;;;;;4984232;28;20077;-89
2023/03/29 12:13:39;;;;;;;2.67;0.60;;;12.10;99.90;;;;;;4982117;28;20405;-89
2023/03/29 12:16:12;;;;;;;2.28;0.90;;;12.20;99.90;;;;;;5010272;28;20101;-93
2023/03/29 12:18:45;;;;;;;2.45;0.90;;;12.10;99.90;;;;;;4984757;28;20108;-91
2023/03/29 12:21:20;;;;;;;3.60;0.88;;;12.00;99.90;;;;;;4991887;28;20383;-90
2023/03/29 12:23:47;;;;;;;2.30;0.80;;;12.10;99.90;;;;;;4982185;28;20030;-89
2023/03/29 12:26:40;;;;;;;1.88;0.70;;;12.30;99.90;;;;;;4985197;28;20489;-90
2023/03/29 12:29:18;;;;;;;1.30;0.57;;;12.40;99.90;;;;;;4985864;28;20057;-89
2023/03/29 12:32:21;;;;;;;2.28;0.70;;;12.30;99.90;;;;;;5010143;28;20108;-90
2023/03/29 12:35:39;;;;;;;2.50;1.40;;;12.60;99.90;;;;;;4988721;28;20034;-89
2023/03/29 12:38:26;;;;;;;2.53;1.20;;;12.70;99.90;;;;;;5014017;28;20430;-90
2023/03/29 12:41:20;;;;;;;4.72;1.33;;;12.60;99.90;;;;;;4991351;28;20029;-89
2023/03/29 12:44:04;;;;;;;3.17;1.30;;;12.50;99.90;;;;;;4989176;28;20105;-87
2023/03/29 12:46:58;;;;;;;3.28;1.48;;;12.50;99.90;;;;;;4970190;28;20031;-90
2023/03/29 12:49:32;;;;;;;2.58;0.88;;;12.60;99.90;;;;;;4971965;28;20031;-87
2023/03/29 12:52:00;;;;;;;2.55;1.10;;;12.70;99.90;;;;;;4982195;28;20094;-87
2023/03/29 12:54:30;;;;;;;3.92;1.55;;;12.60;99.90;;;;;;4985373;28;20117;-89
2023/03/29 12:57:00;;;;;;;3.63;1.73;;;12.60;99.90;;;;;;4980975;28;20104;-88
2023/03/29 12:59:47;;;;;;;4.88;1.00;;;12.50;99.90;;;;;;4992441;28;20030;-89
2023/03/29 13:02:13;;;;;;;2.97;1.60;;;12.60;99.90;;;;;;4979244;28;20042;-87
2023/03/29 13:04:42;;;;;;;3.60;1.02;;;12.50;99.90;;;;;;4974447;28;20030;-88
2023/03/29 13:07:44;;;;;;;3.20;2.20;;;12.70;99.90;;;;;;5004551;28;20030;-87
2023/03/29 13:10:30;;;;;;;5.68;1.27;;;12.50;99.90;;;;;;4997579;28;20053;-87
2023/03/29 13:12:56;;;;;;;3.15;0.90;;;12.50;99.90;;;;;;5001777;28;20034;-88
2023/03/29 13:15:34;;;;;;;3.53;1.65;;;12.60;99.90;;;;;;4973179;28;20133;-88
2023/03/29 13:18:32;;;;;;;2.72;1.13;;;12.60;99.90;;;;;;5001973;28;20060;-88
2023/03/29 13:21:18;;;;;;;3.40;1.45;;;12.80;99.90;;;;;;4997416;28;20030;-88
2023/03/29 13:24:09;;;;;;;1.95;1.05;;;12.80;99.90;;;;;;4996629;28;20030;-88
2023/03/29 13:27:24;;;;;;;3.05;1.40;;;12.70;99.90;;;;;;4972888;28;20396;-88
2023/03/29 13:29:55;;;;;;;2.83;1.05;;;12.70;99.90;;;;;;4955163;28;20046;-89
2023/03/29 13:32:45;;;;;;;2.33;0.63;;;12.70;99.90;;;;;;4935652;28;20170;-87
2023/03/29 13:35:21;;;;;;;2.03;0.98;;;12.90;99.90;;;;;;4940226;28;20280;-88